Whitesboro, OK (74577)

7:32 AM CST on March 02, 2015 (GMT -0600)
RAWS KIAMICHI OK US | Change Station
CLOSE
Current Station
Personal Weather Station
Location: Talihina, OK
Elevation: 680 ft
Nearby Weather Stations

Elev 680 ft 34.76 °N, 94.98 °W | Updated 33 minutes ago

Overcast
Overcast
33 °F
Feels Like 33 °F
N
2
Wind Variable Wind from North
Gusts 7.0 mph

Today
High -- | Low -- °F
--% Chance of Precip.
Yesterday
High -- | Low -- °F
Precip. -- in
6:47 AM 6:16 PM
Waxing Gibbous, 91% visible
Pressure 30.40 in
Visibility 3.0 miles
Clouds Overcast 1000 ft
Windchill 33 °F
Dew Point 32 °F
Humidity 98%
Rainfall 0.04 in
Snow Depth Not available.
UV 0 out of 12
Pollen 2.00 out of 12
Air Quality Not available.
Flu Activity Not available.
METAR KRKR 021055Z AUTO 00000KT 3SM BR OVC010 01/00 A3040 RMK AO2 T00090000

More Conditions Fewer Conditions

Pressure 30.40 in
Visibility 3.0 miles
Clouds Overcast 1000 ft
Windchill 33 °F
Dew Point 32 °F
Humidity 98%
Rainfall 0.04 in
Snow Depth Not available.
UV 0 out of 12
Pollen 2.00 out of 12
Air Quality Not available.
Flu Activity Not available.
METAR KRKR 021055Z AUTO 00000KT 3SM BR OVC010 01/00 A3040 RMK AO2 T00090000

More Conditions Fewer Conditions

Nowcast | as of 6:45 am CST on March 2, 2015

At 6:45 am...National Weather Service Doppler radars continued to detect patchy light drizzle and freezing drizzle spreading across portions of southeast Oklahoma and into west central Arkansas...mainly along and southeast of a line from McAlester to Mountainburg. The freezing drizzle was most likely confined to the valley regions in southeast Oklahoma. A very light coating of ice will be possible...especially on elevated surfaces such as bridges and overpasses. This activity will persist through at least the morning hours.

×

10-Day Weather Forecast

Almanac

Astronomy

Mar. 02, 2015 Rise Set
Actual Time
Civil Twilight
Nautical Twilight
Astronomical Twilight
Moon
Length of Visible Light
Length of Day
Tomorrow will be .
, % of the Moon is Illuminated

Today's Extremes

State Highs State Lows

Community

WunderPhotos

Upload Photos

1,801,782 photos uploaded!

WunderBlogs® & News

Nearby

Air Quality

  Air Quality AQ Index Pollutant
Not available.

Snow Depth

Station Depth Elevation

Earthquake Activity

City Distance Mag. Time & Date
Minimum magnitude displayed is 2.5.

Coastal Water Temperatures

Place Temperature

Nearby Weather Stations